Terminal Aerodrome Forecast
Issued by NWS Sterling, VA

Home | Current Version | Previous Version | Text Only | Print | Product List | Glossary On
Versions: 1 2 3 4 5 6 7 8 9 10 11 12 13 14 15 16 17 18 19 20 21 22 23
000
FTUS41 KLWX 201100
TAFIAD
TAF
KIAD 201140Z 2012/2118 04005KT P6SM BKN250
     FM201500 07010KT P6SM SCT250
     FM210100 06006KT P6SM FEW250
     FM210500 00000KT P6SM FEW250=

USA.gov is the U.S. government's official web portal to all federal, state and local government web resources and services.